Crowley, Texas
Current Conditions -  °F | °C
As of 1:15 AM on Friday 31 Oct 2014 (Local Time) from KFWS Reporting Station
Clear Clear  
Wind Chill: 60°   Ceiling: Unl
Heat Index: 60°   Visibility: 10mi
Dew Point: 52°   Wind: 3mph
Humidity: 73%   Direction: 330°NNW
Pressure: 30.2"   Gusts: NA
Location:  32.58°N, 97.36°W
Report Text: KFWS 310615Z AUTO 33003KT 10SM CLR 16/11 A3020 RMK AO2 T01580110
Loading
Personal Weather Stations






























Interactive Weather Map
Tropical Storm Tracking
New forecast layout! Learn more

10-Day Weather Forecast

Advertisements
Track Severe Weather on mobile